Time;durP1;ratioP1;P1;durP2;ratioP2;P2;SDS_P1;SDS_P2;PMS_P1;PMS_P2;Temp;Humidity;BMP_temperature;BMP_pressure;BME280_temperature;BME280_humidity;BME280_pressure;Samples;Min_cycle;Max_cycle;Signal;HPM_P1;HPM_P2
2021/10/29 00:00:50;;;;;;;32.75;17.34;;;;;;;;;;355750;150;859562;-68
2021/10/29 00:01:52;;;;;;;33.42;17.63;;;;;;;;;;359495;148;859839;-68
2021/10/29 00:02:54;;;;;;;28.85;17.19;;;;;;;;;;357289;150;858279;-69
2021/10/29 00:03:55;;;;;;;30.67;17.16;;;;;;;;;;354493;149;864963;-69
2021/10/29 00:04:58;;;;;;;27.58;17.80;;;;;;;;;;356804;149;864945;-69
2021/10/29 00:06:00;;;;;;;24.33;15.69;;;;;;;;;;357334;150;857368;-68
2021/10/29 00:07:01;;;;;;;27.73;17.01;;;;;;;;;;354936;150;864288;-68
2021/10/29 00:08:03;;;;;;;26.29;16.31;;;;;;;;;;354576;150;865029;-69
2021/10/29 00:09:05;;;;;;;32.53;16.85;;;;;;;;;;350992;152;858189;-69
2021/10/29 00:10:07;;;;;;;31.22;17.23;;;;;;;;;;353479;152;859597;-69
2021/10/29 00:11:09;;;;;;;24.85;17.60;;;;;;;;;;351097;150;856457;-69
2021/10/29 00:12:12;;;;;;;29.59;16.35;;;;;;;;;;351475;150;866423;-69
2021/10/29 00:13:14;;;;;;;24.94;16.71;;;;;;;;;;353266;152;858890;-69
2021/10/29 00:14:16;;;;;;;28.93;17.14;;;;;;;;;;352496;150;857792;-70
2021/10/29 00:15:18;;;;;;;27.54;15.64;;;;;;;;;;351965;150;858825;-70
2021/10/29 00:16:20;;;;;;;28.77;16.13;;;;;;;;;;353689;152;857631;-70
2021/10/29 00:17:22;;;;;;;28.29;16.19;;;;;;;;;;349133;152;857244;-69
2021/10/29 00:18:24;;;;;;;28.51;17.01;;;;;;;;;;351212;150;856733;-69
2021/10/29 00:19:26;;;;;;;27.87;16.71;;;;;;;;;;351606;150;857344;-70
2021/10/29 00:20:28;;;;;;;34.21;17.47;;;;;;;;;;352778;152;865101;-69
2021/10/29 00:21:30;;;;;;;27.47;16.97;;;;;;;;;;351253;150;860136;-69
2021/10/29 00:22:32;;;;;;;28.99;16.75;;;;;;;;;;349704;150;857797;-69
2021/10/29 00:23:34;;;;;;;31.01;17.21;;;;;;;;;;353126;152;857695;-69
2021/10/29 00:24:36;;;;;;;28.26;17.31;;;;;;;;;;349386;152;857269;-69
2021/10/29 00:25:37;;;;;;;30.41;16.96;;;;;;;;;;351181;150;858794;-70
2021/10/29 00:26:39;;;;;;;31.67;16.56;;;;;;;;;;350882;150;864975;-69
2021/10/29 00:27:41;;;;;;;39.85;17.54;;;;;;;;;;351614;152;864961;-69
2021/10/29 00:28:43;;;;;;;27.43;16.35;;;;;;;;;;351354;150;857388;-70
2021/10/29 00:29:45;;;;;;;28.87;16.99;;;;;;;;;;351518;150;857320;-69
2021/10/29 00:30:46;;;;;;;28.18;16.70;;;;;;;;;;350300;152;865121;-69
2021/10/29 00:31:49;;;;;;;28.15;17.04;;;;;;;;;;349762;152;858889;-70
2021/10/29 00:32:50;;;;;;;27.13;16.38;;;;;;;;;;352357;152;866571;-70
2021/10/29 00:33:52;;;;;;;31.93;18.59;;;;;;;;;;352534;150;857222;-71
2021/10/29 00:34:54;;;;;;;30.12;17.19;;;;;;;;;;348823;152;866741;-70
2021/10/29 00:35:55;;;;;;;28.11;16.27;;;;;;;;;;349463;150;859016;-70
2021/10/29 00:36:57;;;;;;;29.18;16.92;;;;;;;;;;351849;150;858893;-70
2021/10/29 00:37:58;;;;;;;28.48;17.44;;;;;;;;;;351824;152;857453;-69
2021/10/29 00:39:00;;;;;;;32.07;17.56;;;;;;;;;;349786;152;864991;-70
2021/10/29 00:40:01;;;;;;;30.58;17.81;;;;;;;;;;350964;150;857269;-70
2021/10/29 00:41:03;;;;;;;29.81;17.21;;;;;;;;;;349260;151;860847;-70
2021/10/29 00:42:05;;;;;;;27.80;16.85;;;;;;;;;;351650;150;857427;-70
2021/10/29 00:43:07;;;;;;;32.67;16.96;;;;;;;;;;350526;150;865122;-70
2021/10/29 00:44:08;;;;;;;25.82;16.78;;;;;;;;;;351931;150;865094;-69
2021/10/29 00:46:27;;;;;;;29.67;17.28;;;;;;;12.09;65.78;100929.84;372405;142;881439;-59
2021/10/29 00:47:28;;;;;;;28.98;16.35;;;;;;;12.00;65.88;100940.22;364585;146;858545;-59
2021/10/29 00:48:30;;;;;;;27.24;16.21;;;;;;;11.96;65.84;100934.11;363798;146;857210;-59
2021/10/29 00:49:32;;;;;;;26.71;15.97;;;;;;;11.95;65.91;100934.97;362712;145;864947;-59
2021/10/29 00:50:35;;;;;;;24.57;15.35;;;;;;;11.98;65.75;100934.12;358603;147;857251;-58
2021/10/29 00:51:37;;;;;;;26.38;16.14;;;;;;;11.95;65.69;100932.37;361587;147;857773;-59
2021/10/29 00:52:39;;;;;;;29.66;16.33;;;;;;;11.94;65.66;100937.58;357460;148;858657;-59
2021/10/29 00:53:41;;;;;;;28.21;16.54;;;;;;;11.93;65.61;100941.03;357029;147;865019;-59
2021/10/29 00:54:42;;;;;;;27.37;15.70;;;;;;;11.91;65.86;100940.16;359930;147;865627;-59
2021/10/29 00:55:44;;;;;;;27.43;15.93;;;;;;;11.90;65.96;100934.09;359051;147;857431;-59
2021/10/29 00:56:47;;;;;;;28.89;16.38;;;;;;;11.90;66.11;100934.09;352821;151;865180;-58
2021/10/29 00:57:51;;;;;;;28.09;15.97;;;;;;;11.91;66.07;100933.23;349767;150;866038;-59
2021/10/29 00:58:54;;;;;;;26.56;16.30;;;;;;;11.88;66.21;100930.62;359870;147;857339;-60
2021/10/29 00:59:56;;;;;;;33.43;16.27;;;;;;;11.88;66.47;100938.41;357995;148;857394;-60
2021/10/29 01:00:58;;;;;;;27.53;15.85;;;;;;;11.87;66.55;100941.02;358692;148;860125;-59
2021/10/29 01:02:00;;;;;;;24.22;15.62;;;;;;;;;;358537;147;859432;-59
2021/10/29 01:03:01;;;;;;;27.78;15.83;;;;;;;;;;360401;147;859658;-60
2021/10/29 01:04:03;;;;;;;26.46;16.69;;;;;;;;;;355777;148;858703;-59
2021/10/29 01:05:05;;;;;;;25.99;16.12;;;;;;;;;;357778;148;858632;-59
2021/10/29 01:06:07;;;;;;;28.29;16.58;;;;;;;;;;361973;147;865019;-59
2021/10/29 01:07:09;;;;;;;29.15;16.61;;;;;;;;;;358464;148;857538;-59
2021/10/29 01:08:11;;;;;;;27.85;16.13;;;;;;;;;;357659;147;865197;-59
2021/10/29 01:09:12;;;;;;;27.30;16.56;;;;;;;;;;359494;147;857306;-60
2021/10/29 01:10:14;;;;;;;28.81;16.33;;;;;;;;;;359898;147;864951;-59
2021/10/29 01:11:17;;;;;;;25.44;16.01;;;;;;;;;;354250;152;858133;-59
2021/10/29 01:12:19;;;;;;;26.10;16.15;;;;;;;;;;359124;148;857333;-59
2021/10/29 01:13:20;;;;;;;24.34;16.10;;;;;;;;;;361473;147;857613;-59
2021/10/29 01:14:22;;;;;;;24.40;16.14;;;;;;;;;;357682;147;860852;-59
2021/10/29 01:15:23;;;;;;;30.24;16.09;;;;;;;;;;364411;147;865373;-59
2021/10/29 01:16:25;;;;;;;25.03;16.24;;;;;;;;;;360948;147;857252;-59
2021/10/29 01:17:27;;;;;;;28.31;16.16;;;;;;;;;;359349;148;864850;-59
2021/10/29 01:18:29;;;;;;;26.71;16.32;;;;;;;;;;354076;152;865119;-59
2021/10/29 01:19:32;;;;;;;25.53;15.89;;;;;;;;;;359692;148;858937;-59
2021/10/29 01:20:34;;;;;;;30.06;16.96;;;;;;;;;;359743;147;858629;-59
2021/10/29 01:21:36;;;;;;;29.56;16.74;;;;;;;;;;355507;148;859107;-59
2021/10/29 01:22:38;;;;;;;27.87;16.15;;;;;;;;;;356886;147;857405;-59
2021/10/29 01:23:40;;;;;;;27.81;16.57;;;;;;;;;;360953;147;865390;-59
2021/10/29 01:24:41;;;;;;;30.14;17.56;;;;;;;;;;355956;147;866717;-59
2021/10/29 01:25:43;;;;;;;24.19;16.10;;;;;;;;;;359016;150;858438;-60
2021/10/29 01:26:45;;;;;;;26.83;16.45;;;;;;;;;;361497;147;864957;-59
2021/10/29 01:27:46;;;;;;;28.37;16.32;;;;;;;;;;360917;147;864795;-59
2021/10/29 01:28:48;;;;;;;28.14;16.97;;;;;;;;;;354417;149;864825;-59
2021/10/29 01:29:50;;;;;;;29.99;17.00;;;;;;;;;;356392;148;857488;-59
2021/10/29 01:30:51;;;;;;;33.27;17.47;;;;;;;;;;361670;147;857242;-59
2021/10/29 01:31:53;;;;;;;25.31;16.52;;;;;;;;;;363265;147;857251;-59
2021/10/29 01:32:54;;;;;;;33.04;16.31;;;;;;;;;;357565;148;857175;-59
2021/10/29 01:33:56;;;;;;;24.39;16.40;;;;;;;;;;352948;150;857075;-59
2021/10/29 01:34:58;;;;;;;26.27;16.07;;;;;;;;;;361597;148;860849;-59
2021/10/29 01:36:00;;;;;;;27.25;16.74;;;;;;;;;;359032;148;865436;-59
2021/10/29 01:37:04;;;;;;;30.99;16.86;;;;;;;;;;359599;147;865689;-60
2021/10/29 01:38:05;;;;;;;34.01;16.27;;;;;;;;;;359444;147;865064;-59
2021/10/29 01:39:07;;;;;;;30.28;16.76;;;;;;;;;;359631;147;859884;-60
2021/10/29 01:40:10;;;;;;;26.39;16.66;;;;;;;;;;356205;148;864067;-59
2021/10/29 01:41:12;;;;;;;25.09;15.63;;;;;;;;;;358391;147;866621;-59
2021/10/29 01:42:13;;;;;;;24.24;15.72;;;;;;;;;;361705;147;860581;-59
2021/10/29 01:43:15;;;;;;;23.41;15.26;;;;;;;;;;356163;148;865478;-60
2021/10/29 01:44:16;;;;;;;31.13;15.71;;;;;;;;;;356532;148;857259;-59
2021/10/29 01:45:18;;;;;;;28.79;15.72;;;;;;;;;;359718;147;857252;-59
2021/10/29 01:46:21;;;;;;;24.64;15.69;;;;;;;;;;359190;148;858998;-59
2021/10/29 01:47:23;;;;;;;28.54;15.30;;;;;;;;;;360023;148;857712;-59
2021/10/29 01:48:24;;;;;;;25.26;15.78;;;;;;;;;;359907;146;857331;-60
2021/10/29 01:49:26;;;;;;;27.89;16.28;;;;;;;;;;359427;147;858833;-59
2021/10/29 01:50:27;;;;;;;27.34;15.83;;;;;;;;;;357159;148;858991;-59
2021/10/29 01:51:30;;;;;;;24.71;15.74;;;;;;;;;;358704;147;859349;-60
2021/10/29 01:52:31;;;;;;;25.76;15.74;;;;;;;;;;359392;147;857424;-59
2021/10/29 01:53:33;;;;;;;28.33;15.86;;;;;;;;;;355951;148;858086;-59
2021/10/29 01:54:34;;;;;;;25.44;15.89;;;;;;;;;;356940;149;858767;-60
2021/10/29 01:55:36;;;;;;;29.19;15.90;;;;;;;;;;358063;147;864885;-59
2021/10/29 01:56:38;;;;;;;28.33;15.10;;;;;;;;;;358254;147;866805;-59
2021/10/29 01:57:39;;;;;;;27.51;15.74;;;;;;;;;;359067;148;858964;-60
2021/10/29 01:58:41;;;;;;;35.21;16.30;;;;;;;;;;357531;148;866546;-59
2021/10/29 01:59:42;;;;;;;27.92;15.47;;;;;;;;;;361191;147;858910;-59
2021/10/29 02:00:44;;;;;;;26.63;15.95;;;;;;;;;;360598;147;858196;-60
2021/10/29 02:01:46;;;;;;;23.90;15.59;;;;;;;;;;361767;148;865511;-59
2021/10/29 02:02:47;;;;;;;25.52;15.47;;;;;;;;;;358427;147;865246;-59
2021/10/29 02:03:49;;;;;;;24.94;15.40;;;;;;;;;;359236;147;866299;-59
2021/10/29 02:04:51;;;;;;;29.74;15.75;;;;;;;;;;358767;148;866621;-60
2021/10/29 02:05:52;;;;;;;25.50;16.16;;;;;;;;;;359537;147;860814;-60
2021/10/29 02:06:54;;;;;;;26.11;15.23;;;;;;;;;;359887;147;858539;-59
2021/10/29 02:07:55;;;;;;;25.93;16.14;;;;;;;;;;361541;147;858820;-59
2021/10/29 02:08:57;;;;;;;30.84;14.54;;;;;;;;;;357249;147;857164;-59
2021/10/29 02:09:58;;;;;;;25.92;15.61;;;;;;;;;;358740;147;865104;-59
2021/10/29 02:11:00;;;;;;;31.40;15.24;;;;;;;;;;360846;147;858815;-59
2021/10/29 02:12:02;;;;;;;28.74;15.47;;;;;;;;;;358681;148;857873;-59
2021/10/29 02:13:04;;;;;;;29.15;15.64;;;;;;;;;;360579;148;857884;-59
2021/10/29 02:14:06;;;;;;;25.27;14.71;;;;;;;;;;361584;147;858720;-59
2021/10/29 02:15:08;;;;;;;25.01;15.41;;;;;;;;;;357238;149;859837;-59
2021/10/29 02:16:10;;;;;;;24.62;14.77;;;;;;;;;;359056;150;857704;-59
2021/10/29 02:17:11;;;;;;;26.37;15.47;;;;;;;;;;359875;147;856182;-59
2021/10/29 02:18:13;;;;;;;24.67;14.77;;;;;;;;;;358646;147;858652;-59
2021/10/29 02:19:14;;;;;;;25.24;14.47;;;;;;;;;;362384;148;856678;-59
2021/10/29 02:20:16;;;;;;;23.97;14.71;;;;;;;;;;361968;147;863700;-59
2021/10/29 02:21:18;;;;;;;26.29;15.14;;;;;;;;;;361871;147;856014;-59
2021/10/29 02:22:19;;;;;;;25.91;15.65;;;;;;;;;;358824;148;863726;-59
2021/10/29 02:23:21;;;;;;;27.85;15.11;;;;;;;;;;353174;149;856134;-59
2021/10/29 02:24:23;;;;;;;24.94;15.07;;;;;;;;;;357898;147;856105;-59
2021/10/29 02:25:24;;;;;;;24.42;14.94;;;;;;;;;;361738;147;859505;-59
2021/10/29 02:26:28;;;;;;;24.08;13.98;;;;;;;;;;355718;148;863640;-59
2021/10/29 02:27:30;;;;;;;24.93;15.09;;;;;;;;;;360461;147;857265;-59
2021/10/29 02:28:31;;;;;;;26.56;16.26;;;;;;;;;;360358;147;864341;-60
2021/10/29 02:31:25;;;;;;;24.66;14.92;;;;;;;11.57;66.51;100945.22;371678;142;867751;-59
2021/10/29 02:32:26;;;;;;;23.71;15.01;;;;;;;11.48;66.44;100949.51;365447;144;860353;-60
2021/10/29 02:33:28;;;;;;;24.91;13.81;;;;;;;11.48;66.46;100952.09;366095;147;865276;-59
2021/10/29 02:34:30;;;;;;;23.97;14.81;;;;;;;11.50;66.33;100950.38;363166;146;857286;-60
2021/10/29 02:35:32;;;;;;;21.27;14.54;;;;;;;11.54;66.27;100946.09;365003;145;865938;-60
2021/10/29 02:36:33;;;;;;;23.71;14.83;;;;;;;11.54;66.27;100946.09;364408;144;865798;-59
2021/10/29 02:37:35;;;;;;;24.10;15.51;;;;;;;11.59;66.10;100943.50;367651;145;864862;-60
2021/10/29 02:38:37;;;;;;;26.19;14.90;;;;;;;11.59;65.90;100952.16;363294;145;864954;-58
2021/10/29 02:39:39;;;;;;;25.00;14.29;;;;;;;11.60;65.88;100950.41;365495;145;865040;-58
2021/10/29 02:40:40;;;;;;;26.52;14.99;;;;;;;11.58;66.00;100952.14;364886;146;866644;-59
2021/10/29 02:41:42;;;;;;;22.84;14.91;;;;;;;11.60;65.94;100956.48;361772;144;866758;-59
2021/10/29 02:42:44;;;;;;;22.80;14.60;;;;;;;11.59;65.82;100946.09;365420;145;857260;-59
2021/10/29 02:43:46;;;;;;;25.51;14.50;;;;;;;11.58;65.86;100955.61;363873;148;856270;-59
2021/10/29 02:44:48;;;;;;;21.95;14.09;;;;;;;;;;362912;144;865191;-59
2021/10/29 02:45:49;;;;;;;27.28;14.66;;;;;;;;;;364867;146;857198;-59
2021/10/29 02:46:51;;;;;;;25.02;14.64;;;;;;;;;;363315;145;857182;-59
2021/10/29 02:47:53;;;;;;;23.63;15.63;;;;;;;;;;356183;148;857738;-59
2021/10/29 02:48:54;;;;;;;23.92;15.08;;;;;;;;;;365376;145;857194;-58
2021/10/29 02:49:56;;;;;;;26.68;15.44;;;;;;;;;;358098;147;857250;-58
2021/10/29 02:50:57;;;;;;;25.98;16.20;;;;;;;;;;357527;150;857198;-58
2021/10/29 02:51:59;;;;;;;25.58;15.48;;;;;;;;;;357922;148;859098;-58
2021/10/29 02:53:03;;;;;;;26.11;15.65;;;;;;;;;;356402;147;858401;-58
2021/10/29 02:54:04;;;;;;;25.14;15.59;;;;;;;;;;356569;147;857961;-59
2021/10/29 02:55:06;;;;;;;27.70;15.54;;;;;;;11.65;100.00;151230.28;356655;150;865005;-59
2021/10/29 02:56:09;;;;;;;19.20;12.22;;;;;;;;;;358004;147;864815;-58
2021/10/29 02:57:11;;;;;;;16.97;12.37;;;;;;;;;;356993;147;862437;-58
2021/10/29 02:58:12;;;;;;;21.71;12.74;;;;;;;;;;357920;148;857252;-57
2021/10/29 02:59:14;;;;;;;25.09;13.58;;;;;;;;;;358926;147;857154;-59
2021/10/29 03:00:16;;;;;;;28.90;14.39;;;;;;;;;;355548;148;858965;-58
2021/10/29 03:01:19;;;;;;;23.45;14.07;;;;;;;;;;355639;148;865907;-58
2021/10/29 03:02:21;;;;;;;25.92;14.72;;;;;;;;;;358906;150;859633;-59
2021/10/29 03:03:23;;;;;;;23.52;14.08;;;;;;;;;;356595;148;864893;-58
2021/10/29 03:04:25;;;;;;;21.18;13.93;;;;;;;;;;357991;147;857273;-59
2021/10/29 03:05:27;;;;;;;23.29;14.07;;;;;;;;;;355633;150;857724;-58
2021/10/29 03:06:28;;;;;;;22.12;14.56;;;;;;;;;;356611;148;857406;-58
2021/10/29 03:07:30;;;;;;;21.44;13.92;;;;;;;;;;356169;148;866130;-59
2021/10/29 03:08:31;;;;;;;26.47;14.72;;;;;;;;;;357008;148;865662;-57
2021/10/29 03:09:33;;;;;;;26.77;15.21;;;;;;;;;;356105;148;857914;-59
2021/10/29 03:10:35;;;;;;;27.47;15.19;;;;;;;;;;356811;148;857297;-59
2021/10/29 03:11:37;;;;;;;23.05;14.20;;;;;;;;;;356245;147;857288;-60
2021/10/29 03:12:39;;;;;;;21.71;14.55;;;;;;;;;;356954;149;868541;-58
2021/10/29 03:13:40;;;;;;;24.52;14.61;;;;;;;;;;356788;148;858761;-58
2021/10/29 03:14:42;;;;;;;23.94;14.19;;;;;;;;;;356514;147;864935;-58
2021/10/29 03:15:43;;;;;;;21.13;14.20;;;;;;;;;;356505;147;857229;-59
2021/10/29 03:16:45;;;;;;;27.31;15.77;;;;;;;;;;355702;149;860645;-57
2021/10/29 03:17:47;;;;;;;23.87;15.32;;;;;;;;;;355951;147;863968;-58
2021/10/29 03:18:48;;;;;;;23.14;14.74;;;;;;;;;;357079;147;857668;-57
2021/10/29 03:19:50;;;;;;;25.84;14.50;;;;;;;;;;356586;147;857239;-59
2021/10/29 03:20:52;;;;;;;29.47;14.92;;;;;;;;;;357832;147;866729;-57
2021/10/29 03:21:53;;;;;;;23.07;13.85;;;;;;;;;;357529;147;865689;-57
2021/10/29 03:22:55;;;;;;;30.24;13.93;;;;;;;;;;356682;147;857397;-57
2021/10/29 03:23:57;;;;;;;25.93;14.87;;;;;;;;;;356406;147;857270;-59
2021/10/29 03:24:58;;;;;;;24.11;13.98;;;;;;;;;;355586;148;865021;-58
2021/10/29 03:26:00;;;;;;;25.44;14.46;;;;;;;;;;354892;147;866550;-57
2021/10/29 03:27:01;;;;;;;24.63;14.16;;;;;;;;;;354216;148;856511;-58
2021/10/29 03:28:03;;;;;;;24.71;13.98;;;;;;;;;;357276;148;858832;-60
2021/10/29 03:29:05;;;;;;;26.89;14.39;;;;;;;;;;356220;147;864900;-58
2021/10/29 03:30:07;;;;;;;23.29;14.33;;;;;;;;;;355709;148;857010;-59
2021/10/29 03:31:08;;;;;;;26.61;14.14;;;;;;;;;;356232;147;863998;-59
2021/10/29 03:32:10;;;;;;;25.98;13.41;;;;;;;;;;354415;149;858426;-59
2021/10/29 03:33:12;;;;;;;23.07;14.27;;;;;;;;;;353376;149;864841;-60
2021/10/29 03:34:14;;;;;;;22.59;13.55;;;;;;;;;;353366;151;857289;-59
2021/10/29 03:35:16;;;;;;;28.21;13.78;;;;;;;;;;355529;148;857251;-61
2021/10/29 03:36:18;;;;;;;27.12;14.09;;;;;;;;;;354369;149;865577;-59
2021/10/29 03:38:46;;;;;;;24.56;14.84;;;;;;;;;;353166;150;866592;-59
2021/10/29 03:39:56;;;;;;;24.90;15.26;;;;;;;;;;353682;149;864880;-59
2021/10/29 03:40:58;;;;;;;23.74;15.10;;;;;;;;;;351859;148;860363;-59
2021/10/29 03:42:03;;;;;;;22.91;14.04;;;;;;;;;;352382;151;859114;-58
2021/10/29 03:44:28;;;;;;;23.54;13.81;;;;;;;;;;353872;149;859420;-58
2021/10/29 03:45:24;;;;;;;26.34;14.94;;;;;;;;;;353066;148;864867;-58
2021/10/29 03:46:29;;;;;;;26.85;14.50;;;;;;;;;;353484;149;859227;-59
2021/10/29 03:47:33;;;;;;;27.37;15.37;;;;;;;;;;354260;148;858684;-59
2021/10/29 03:50:00;;;;;;;24.49;14.91;;;;;;;;;;351905;148;858650;-58
2021/10/29 03:52:23;;;;;;;23.13;14.96;;;;;;;;;;355180;150;857161;-58
2021/10/29 03:53:35;;;;;;;22.26;13.72;;;;;;;;;;353475;150;857983;-58
2021/10/29 03:54:34;;;;;;;25.22;13.83;;;;;;;;;;353919;149;858933;-60
2021/10/29 03:55:40;;;;;;;22.36;13.58;;;;;;;;;;356080;151;857086;-59
2021/10/29 03:56:45;;;;;;;25.91;14.13;;;;;;;;;;356545;148;857783;-58
2021/10/29 03:57:45;;;;;;;24.00;14.89;;;;;;;;;;354789;149;858848;-59
2021/10/29 03:58:47;;;;;;;28.24;15.31;;;;;;;;;;352232;150;856315;-60
2021/10/29 03:59:49;;;;;;;25.38;14.85;;;;;;;;;;356390;148;857922;-59
2021/10/29 04:00:50;;;;;;;23.74;14.49;;;;;;;;;;348293;151;857232;-58
2021/10/29 04:01:52;;;;;;;26.50;15.44;;;;;;;;;;341243;154;858814;-60
2021/10/29 04:02:54;;;;;;;24.34;14.78;;;;;;;;;;342346;155;865647;-60
2021/10/29 04:03:56;;;;;;;27.06;15.68;;;;;;;;;;349182;153;864787;-59
2021/10/29 04:04:57;;;;;;;25.60;15.90;;;;;;;;;;349174;152;857359;-59
2021/10/29 04:05:59;;;;;;;24.92;15.59;;;;;;;;;;350643;152;857847;-59
2021/10/29 04:07:00;;;;;;;21.69;13.77;;;;;;;;;;347177;152;865442;-58
2021/10/29 04:08:02;;;;;;;25.43;14.30;;;;;;;;;;341856;156;864969;-60
2021/10/29 04:09:04;;;;;;;24.86;14.96;;;;;;;;;;347743;153;866588;-59
2021/10/29 04:10:06;;;;;;;24.55;15.59;;;;;;;;;;339988;155;865803;-59
2021/10/29 04:11:07;;;;;;;32.46;16.14;;;;;;;;;;339741;154;857798;-58
2021/10/29 04:12:10;;;;;;;27.19;15.76;;;;;;;;;;341292;155;864030;-59
2021/10/29 04:13:12;;;;;;;28.84;15.93;;;;;;;;;;343251;156;866777;-60
2021/10/29 04:14:14;;;;;;;25.21;14.60;;;;;;;;;;341721;155;857210;-60
2021/10/29 04:15:15;;;;;;;26.53;14.33;;;;;;;;;;341555;154;857771;-59
2021/10/29 04:16:19;;;;;;;25.07;14.95;;;;;;;;;;340737;154;857383;-61
2021/10/29 04:17:21;;;;;;;25.36;14.86;;;;;;;;;;342074;154;857133;-60
2021/10/29 04:18:24;;;;;;;26.54;16.01;;;;;;;;;;342485;154;858141;-59
2021/10/29 04:19:26;;;;;;;22.29;14.07;;;;;;;;;;350031;152;857385;-61
2021/10/29 04:20:28;;;;;;;27.62;14.79;;;;;;;;;;341642;157;858573;-60
2021/10/29 04:21:29;;;;;;;24.85;14.77;;;;;;;;;;347124;154;857322;-63
2021/10/29 04:22:31;;;;;;;26.34;14.61;;;;;;;;;;345787;153;859072;-60
2021/10/29 04:23:33;;;;;;;22.47;14.64;;;;;;;;;;343178;153;865305;-60
2021/10/29 04:24:34;;;;;;;24.01;15.38;;;;;;;;;;344667;153;858288;-61
2021/10/29 04:25:36;;;;;;;25.13;15.71;;;;;;;;;;346345;154;864980;-59
2021/10/29 04:26:38;;;;;;;28.78;16.20;;;;;;;;;;343995;154;859883;-61
2021/10/29 04:27:54;;;;;;;26.21;15.60;;;;;;;;;;343038;154;857320;-60
2021/10/29 04:28:54;;;;;;;32.79;16.93;;;;;;;;;;345614;153;865012;-60
2021/10/29 04:29:53;;;;;;;25.19;15.83;;;;;;;;;;345508;154;857189;-60
2021/10/29 04:30:56;;;;;;;27.70;16.07;;;;;;;;;;344024;153;857873;-58
2021/10/29 04:31:58;;;;;;;27.07;16.68;;;;;;;;;;342863;153;865172;-60
2021/10/29 04:33:01;;;;;;;27.97;17.20;;;;;;;;;;343918;154;866385;-61
2021/10/29 04:34:03;;;;;;;31.45;16.55;;;;;;;;;;342769;154;857441;-61
2021/10/29 04:35:04;;;;;;;23.19;15.09;;;;;;;;;;345597;153;858357;-62
2021/10/29 04:36:06;;;;;;;26.19;16.07;;;;;;;;;;346010;154;865258;-60
2021/10/29 04:37:07;;;;;;;23.77;14.67;;;;;;;;;;348498;152;864175;-61
2021/10/29 04:38:09;;;;;;;23.31;14.81;;;;;;;;;;348516;152;856741;-65
2021/10/29 04:39:14;;;;;;;27.17;15.30;;;;;;;;;;348060;151;857288;-62
2021/10/29 04:40:15;;;;;;;26.14;15.45;;;;;;;;;;347021;152;857183;-67
2021/10/29 04:41:18;;;;;;;27.17;15.75;;;;;;;;;;347285;152;859457;-61
2021/10/29 04:42:20;;;;;;;29.35;16.59;;;;;;;;;;343500;156;857276;-62
2021/10/29 04:43:22;;;;;;;25.90;16.06;;;;;;;;;;342219;157;859088;-64
2021/10/29 04:44:23;;;;;;;30.09;16.56;;;;;;;;;;341088;155;858288;-62
2021/10/29 04:45:25;;;;;;;31.18;17.24;;;;;;;;;;348266;152;857380;-60
2021/10/29 04:46:27;;;;;;;27.19;16.87;;;;;;;;;;341435;155;866916;-60
2021/10/29 04:47:28;;;;;;;26.81;16.19;;;;;;;;;;340802;154;858965;-64
2021/10/29 04:48:30;;;;;;;28.61;15.97;;;;;;;;;;340333;155;865539;-62
2021/10/29 04:49:32;;;;;;;25.59;15.93;;;;;;;;;;343618;154;858267;-59
2021/10/29 04:50:33;;;;;;;25.11;15.65;;;;;;;;;;335240;154;857879;-63
2021/10/29 04:51:35;;;;;;;27.52;17.11;;;;;;;;;;344221;154;859912;-61
2021/10/29 04:52:37;;;;;;;29.58;17.96;;;;;;;;;;343203;154;865259;-61
2021/10/29 04:53:38;;;;;;;30.48;17.97;;;;;;;;;;346386;154;857322;-61
2021/10/29 04:54:40;;;;;;;29.13;17.49;;;;;;;;;;348441;153;859869;-62
2021/10/29 04:55:41;;;;;;;27.31;17.02;;;;;;;;;;339724;156;859046;-62
2021/10/29 04:56:43;;;;;;;27.36;17.36;;;;;;;;;;341250;154;856117;-61
2021/10/29 04:57:45;;;;;;;24.77;15.47;;;;;;;;;;347137;152;859376;-62
2021/10/29 04:58:46;;;;;;;29.54;16.15;;;;;;;;;;348625;152;866313;-65
2021/10/29 04:59:48;;;;;;;27.27;17.63;;;;;;;;;;346982;152;860552;-64
2021/10/29 05:00:49;;;;;;;27.48;16.02;;;;;;;;;;345962;152;859279;-64
2021/10/29 05:01:51;;;;;;;26.09;15.71;;;;;;;;;;340427;156;857677;-64
2021/10/29 05:02:54;;;;;;;26.73;15.64;;;;;;;;;;347148;152;857187;-63
2021/10/29 05:03:56;;;;;;;26.45;15.96;;;;;;;;;;340392;157;866703;-63
2021/10/29 05:10:58;;;;;;;29.70;16.29;;;;;;;10.69;67.59;101015.52;372688;142;874687;-60
2021/10/29 05:12:00;;;;;;;31.65;17.36;;;;;;;10.58;68.23;101023.18;363492;147;857246;-62
2021/10/29 05:13:02;;;;;;;29.22;17.54;;;;;;;10.60;68.67;101026.65;362512;145;857243;-62
2021/10/29 05:14:04;;;;;;;29.69;17.42;;;;;;;10.60;68.67;101026.65;365127;145;864993;-61
2021/10/29 05:15:07;;;;;;;25.13;16.81;;;;;;;10.60;68.67;101026.65;361447;144;858546;-62
2021/10/29 05:16:09;;;;;;;27.96;16.96;;;;;;;10.73;68.71;101017.28;361844;146;864112;-62
2021/10/29 05:17:11;;;;;;;25.75;15.79;;;;;;;10.78;68.44;101025.96;364511;145;857246;-62
2021/10/29 05:18:16;;;;;;;29.00;17.51;;;;;;;10.83;68.23;101028.58;362982;147;859155;-61
2021/10/29 05:19:18;;;;;;;28.56;16.53;;;;;;;10.86;68.17;101034.66;359529;148;857284;-61
2021/10/29 05:20:20;;;;;;;24.69;16.66;;;;;;;10.92;68.17;101028.64;361724;145;858744;-62
2021/10/29 05:21:22;;;;;;;27.15;17.09;;;;;;;10.98;68.08;101033.02;364905;145;857334;-62
2021/10/29 05:22:23;;;;;;;26.54;15.99;;;;;;;11.04;67.87;101026.15;362116;145;864966;-61
2021/10/29 05:23:26;;;;;;;25.85;17.11;;;;;;;11.08;67.65;101032.23;364147;146;857394;-62
2021/10/29 05:24:28;;;;;;;27.31;17.13;;;;;;;11.11;67.52;101035.70;363837;145;865380;-62
2021/10/29 05:25:29;;;;;;;29.06;17.84;;;;;;;11.13;67.46;101029.66;367197;145;857282;-62
2021/10/29 05:26:32;;;;;;;27.31;16.86;;;;;;;11.15;67.58;101031.42;364543;145;866720;-62
2021/10/29 05:27:34;;;;;;;28.69;17.77;;;;;;;11.18;67.50;101028.86;364249;144;857320;-62
2021/10/29 05:28:37;;;;;;;24.76;16.56;;;;;;;11.23;67.41;101037.53;362837;145;864960;-62
2021/10/29 05:29:39;;;;;;;26.92;17.22;;;;;;;11.28;67.40;101036.69;358740;146;858233;-62
2021/10/29 05:30:41;;;;;;;29.52;17.56;;;;;;;11.32;67.22;101033.27;358642;149;864867;-62
2021/10/29 05:31:43;;;;;;;27.21;17.35;;;;;;;11.35;67.15;101041.06;357413;147;864952;-62
2021/10/29 05:32:45;;;;;;;26.68;17.08;;;;;;;11.37;67.13;101035.04;355039;150;865058;-63
2021/10/29 05:33:47;;;;;;;29.21;16.72;;;;;;;11.40;66.98;101037.66;356229;148;857777;-62
2021/10/29 05:34:49;;;;;;;28.89;17.49;;;;;;;11.42;66.93;101039.39;359480;147;858590;-62
2021/10/29 05:35:50;;;;;;;26.74;16.52;;;;;;;11.41;66.93;101043.69;357619;148;865158;-62
2021/10/29 05:36:52;;;;;;;28.05;16.15;;;;;;;11.43;67.01;101041.97;360031;149;865030;-62
2021/10/29 05:37:54;;;;;;;25.63;15.94;;;;;;;11.48;67.01;101037.68;359933;147;857281;-62
2021/10/29 05:38:56;;;;;;;29.69;16.58;;;;;;;11.54;66.84;101042.05;358406;148;864959;-62
2021/10/29 05:39:58;;;;;;;26.46;16.24;;;;;;;11.57;66.59;101038.59;353551;150;864908;-62
2021/10/29 05:41:01;;;;;;;27.59;16.75;;;;;;;11.61;66.62;101041.22;355938;148;864829;-62
2021/10/29 05:42:03;;;;;;;30.52;16.39;;;;;;;11.65;66.51;101042.09;359964;147;857329;-64
2021/10/29 05:43:05;;;;;;;30.70;16.16;;;;;;;11.68;66.38;101040.40;358567;147;865293;-63
2021/10/29 05:44:07;;;;;;;32.25;15.83;;;;;;;11.73;66.16;101040.44;359557;147;859227;-63
2021/10/29 05:45:09;;;;;;;28.39;15.82;;;;;;;11.77;65.84;101039.59;359572;147;865105;-63
2021/10/29 05:46:12;;;;;;;32.66;16.76;;;;;;;11.80;65.73;101041.31;358152;147;865721;-64
2021/10/29 05:47:15;;;;;;;34.80;16.64;;;;;;;11.83;65.57;101041.33;358287;147;857304;-63
2021/10/29 05:48:17;;;;;;;29.92;16.66;;;;;;;11.82;65.52;101045.67;359456;148;865871;-64
2021/10/29 05:49:19;;;;;;;27.01;16.63;;;;;;;11.83;65.66;101044.80;360166;147;860721;-62
2021/10/29 05:50:21;;;;;;;25.88;16.19;;;;;;;11.86;65.67;101043.08;359700;147;860940;-62